Skip Navigation Links Skip Navigation Links

Current Weather

Chicago O'Hare Intl, Chicago

For information only: do not use for flight planning or navigation.
Latest weather
Observation time Monday, March 19, 2018 4:51 AM CDT
Local time Monday, March 19, 2018 5:55 AM CDT
Flight conditions Visual Meteorological Conditions
Wind direction North-Northeast (20°)
Wind speed 7 mph
Visibility 10 mi.
Sky condition
Ceiling 25,000 ft. broken clouds
Cloud layer few clouds 11,000 ft.
Cloud layer broken clouds 25,000 ft.
Temperature 35°F
Dewpoint 24°F
Altimeter 29.92 in.Hg
Derived measurements
Relative humidity 64%
Wind chill 29°F
Density altitude -880 ft.
Sea-level pressure 29.93 in.Hg
System requires maintenance.
Automated weather observing station with precipitation discriminator.
METAR KORD 190951Z 02006KT 10SM FEW110 BKN250 02/M04 A2992 RMK AO2 SLP134 T00171044 $


Location code

InnerDrive.Weather 4.0.6615.0 Release CLR 4.0.30319.42000
Copyright ©2018 Inner Drive Technology. All rights reserved. Portions Copyright ©1986-2018 David Braverman.

Find weather

Site navigation

Skip Navigation Links

Place info

Page info

PayPal - The safer, easier way to pay online!

Return home.

Copyright ©2018 Inner Drive Technology. Purveyors of fine, hand-crafted computer software. Page printed 2018-03-19T10:55:05 UTC.